This is the latest recevied weather packets stored in our database for station/object WMKL. If no packets are shown the sender has not sent any weather packets the latest 10 day(s).
| Time | Temp. | Humidity | Pressure | Rain* | Wind** | Luminosity | Snow |
|---|---|---|---|---|---|---|---|
| 1777468236 | 26.67° C | 88% | 1009 hPa | - | - | - | - |
| 1777461036 | 31.67° C | 66% | 1007 hPa | - | - | - | - |
| 1777457456 | 31.67° C | 66% | 1006 hPa | - | - | - | - |
| 1777453835 | 32.78° C | 66% | 1006 hPa | - | - | - | - |
| 1777450240 | 32.78° C | 66% | 1007 hPa | - | - | - | - |
| 1777446635 | 32.78° C | 66% | 1008 hPa | - | - | - | - |
| 1777443058 | 31.67° C | 70% | 1009 hPa | - | - | - | - |
| 1777439435 | 31.67° C | 70% | 1009 hPa | - | - | - | - |
| 1777410634 | 28.89° C | 79% | 1007 hPa | - | - | - | - |
| 1777407039 | 28.89° C | 79% | 1008 hPa | - | - | - | - |
| 1777403437 | 27.78° C | 88% | 1008 hPa | - | - | - | - |
| 1777399834 | 28.89° C | 79% | 1008 hPa | - | - | - | - |
| 1777396253 | 28.89° C | 83% | 1009 hPa | - | - | - | - |
| 1777389034 | 28.89° C | 83% | 1009 hPa | - | - | - | - |
| 1777385434 | 30° C | 79% | 1008 hPa | - | - | - | - |
| 1777381852 | 30° C | 79% | 1008 hPa | - | - | - | - |
| 1777378233 | 30.56° C | 74% | 1007 hPa | - | - | - | - |
| 1777374633 | 30.56° C | 74% | 1006 hPa | - | - | - | - |
| 1777371033 | 31.67° C | 70% | 1005 hPa | - | - | - | - |
| 1777367452 | 31.67° C | 66% | 1005 hPa | - | - | - | - |
| 1777363833 | 32.78° C | 62% | 1006 hPa | - | - | - | - |
| 1777360233 | 32.78° C | 66% | 1007 hPa | - | - | - | - |
| 1777356633 | 31.67° C | 70% | 1008 hPa | - | - | - | - |
| 1777353051 | 31.67° C | 70% | 1009 hPa | - | - | - | - |
| 1777349432 | 31.67° C | 70% | 1009 hPa | - | - | - | - |
* Rain since midnight (hover to see other rain measurements)
** Current wind speed in m/s (hover to see current wind gust speed)